sensor_id;sensor_type;location;lat;lon;timestamp;P1;durP1;ratioP1;P2;durP2;ratioP2
51738;SDS011;37815;52.692;6.226;2024-03-07T00:02:31;15.52;;;7.85;;
51738;SDS011;37815;52.692;6.226;2024-03-07T00:07:31;17.58;;;7.72;;
51738;SDS011;37815;52.692;6.226;2024-03-07T00:12:33;14.55;;;7.43;;
51738;SDS011;37815;52.692;6.226;2024-03-07T00:17:35;17.10;;;8.38;;
51738;SDS011;37815;52.692;6.226;2024-03-07T00:22:36;15.90;;;8.05;;
51738;SDS011;37815;52.692;6.226;2024-03-07T00:27:37;17.40;;;8.07;;
51738;SDS011;37815;52.692;6.226;2024-03-07T00:32:38;14.88;;;7.40;;
51738;SDS011;37815;52.692;6.226;2024-03-07T00:37:39;16.77;;;8.50;;
51738;SDS011;37815;52.692;6.226;2024-03-07T00:42:39;16.25;;;8.23;;
51738;SDS011;37815;52.692;6.226;2024-03-07T00:47:40;14.65;;;7.40;;
51738;SDS011;37815;52.692;6.226;2024-03-07T00:52:41;17.88;;;8.20;;
51738;SDS011;37815;52.692;6.226;2024-03-07T00:57:41;15.25;;;7.32;;
51738;SDS011;37815;52.692;6.226;2024-03-07T01:02:42;16.23;;;7.35;;
51738;SDS011;37815;52.692;6.226;2024-03-07T01:07:46;16.88;;;7.93;;
51738;SDS011;37815;52.692;6.226;2024-03-07T01:12:47;15.18;;;7.25;;
51738;SDS011;37815;52.692;6.226;2024-03-07T01:17:49;14.68;;;7.53;;
51738;SDS011;37815;52.692;6.226;2024-03-07T01:22:51;15.38;;;8.05;;
51738;SDS011;37815;52.692;6.226;2024-03-07T01:27:51;13.40;;;7.35;;
51738;SDS011;37815;52.692;6.226;2024-03-07T01:32:52;14.32;;;7.57;;
51738;SDS011;37815;52.692;6.226;2024-03-07T01:37:53;15.60;;;7.80;;
51738;SDS011;37815;52.692;6.226;2024-03-07T01:42:54;14.82;;;7.97;;
51738;SDS011;37815;52.692;6.226;2024-03-07T01:47:55;14.90;;;7.68;;
51738;SDS011;37815;52.692;6.226;2024-03-07T01:52:56;15.88;;;8.30;;
51738;SDS011;37815;52.692;6.226;2024-03-07T01:57:57;16.00;;;7.70;;
51738;SDS011;37815;52.692;6.226;2024-03-07T02:03:00;15.55;;;7.18;;
51738;SDS011;37815;52.692;6.226;2024-03-07T02:08:00;16.40;;;7.95;;
51738;SDS011;37815;52.692;6.226;2024-03-07T02:13:01;16.88;;;8.50;;
51738;SDS011;37815;52.692;6.226;2024-03-07T02:18:02;15.68;;;8.25;;
51738;SDS011;37815;52.692;6.226;2024-03-07T02:23:03;14.32;;;7.05;;
51738;SDS011;37815;52.692;6.226;2024-03-07T02:28:04;16.20;;;7.13;;
51738;SDS011;37815;52.692;6.226;2024-03-07T02:33:05;16.50;;;7.63;;
51738;SDS011;37815;52.692;6.226;2024-03-07T02:38:09;14.90;;;7.22;;
51738;SDS011;37815;52.692;6.226;2024-03-07T02:43:10;14.57;;;7.75;;
51738;SDS011;37815;52.692;6.226;2024-03-07T02:48:11;15.98;;;8.35;;
51738;SDS011;37815;52.692;6.226;2024-03-07T02:53:11;15.27;;;7.45;;
51738;SDS011;37815;52.692;6.226;2024-03-07T02:58:12;16.27;;;7.35;;
51738;SDS011;37815;52.692;6.226;2024-03-07T03:03:13;14.90;;;7.78;;
51738;SDS011;37815;52.692;6.226;2024-03-07T03:08:13;13.82;;;7.15;;
51738;SDS011;37815;52.692;6.226;2024-03-07T03:13:14;14.20;;;7.00;;
51738;SDS011;37815;52.692;6.226;2024-03-07T03:18:15;13.32;;;6.57;;
51738;SDS011;37815;52.692;6.226;2024-03-07T03:23:16;16.27;;;8.15;;
51738;SDS011;37815;52.692;6.226;2024-03-07T03:28:17;16.50;;;7.88;;
51738;SDS011;37815;52.692;6.226;2024-03-07T03:33:19;15.50;;;7.13;;
51738;SDS011;37815;52.692;6.226;2024-03-07T03:38:20;15.15;;;7.40;;
51738;SDS011;37815;52.692;6.226;2024-03-07T03:43:21;13.85;;;6.55;;
51738;SDS011;37815;52.692;6.226;2024-03-07T03:48:24;16.35;;;7.28;;
51738;SDS011;37815;52.692;6.226;2024-03-07T03:53:24;12.82;;;7.03;;
51738;SDS011;37815;52.692;6.226;2024-03-07T03:58:25;15.75;;;6.95;;
51738;SDS011;37815;52.692;6.226;2024-03-07T04:03:25;12.90;;;7.25;;
51738;SDS011;37815;52.692;6.226;2024-03-07T04:08:26;15.30;;;7.47;;
51738;SDS011;37815;52.692;6.226;2024-03-07T04:13:27;12.65;;;6.20;;
51738;SDS011;37815;52.692;6.226;2024-03-07T04:18:28;14.93;;;7.00;;
51738;SDS011;37815;52.692;6.226;2024-03-07T04:23:28;13.02;;;6.80;;
51738;SDS011;37815;52.692;6.226;2024-03-07T04:28:29;11.63;;;6.40;;
51738;SDS011;37815;52.692;6.226;2024-03-07T04:33:30;11.13;;;6.50;;
51738;SDS011;37815;52.692;6.226;2024-03-07T04:38:31;14.18;;;6.55;;
51738;SDS011;37815;52.692;6.226;2024-03-07T04:43:31;16.17;;;7.22;;
51738;SDS011;37815;52.692;6.226;2024-03-07T04:48:32;12.60;;;6.32;;
51738;SDS011;37815;52.692;6.226;2024-03-07T04:53:33;10.90;;;6.03;;
51738;SDS011;37815;52.692;6.226;2024-03-07T04:58:37;13.88;;;6.45;;
51738;SDS011;37815;52.692;6.226;2024-03-07T05:03:37;13.15;;;7.03;;
51738;SDS011;37815;52.692;6.226;2024-03-07T05:08:38;13.27;;;6.53;;
51738;SDS011;37815;52.692;6.226;2024-03-07T05:13:39;14.30;;;6.13;;
51738;SDS011;37815;52.692;6.226;2024-03-07T05:18:42;16.45;;;6.90;;
51738;SDS011;37815;52.692;6.226;2024-03-07T05:23:43;11.80;;;6.07;;
51738;SDS011;37815;52.692;6.226;2024-03-07T05:28:43;12.70;;;6.60;;
51738;SDS011;37815;52.692;6.226;2024-03-07T05:33:44;13.65;;;6.65;;
51738;SDS011;37815;52.692;6.226;2024-03-07T05:38:45;13.00;;;5.97;;
51738;SDS011;37815;52.692;6.226;2024-03-07T05:43:45;12.02;;;6.20;;
51738;SDS011;37815;52.692;6.226;2024-03-07T05:48:46;12.05;;;6.63;;
51738;SDS011;37815;52.692;6.226;2024-03-07T05:53:52;12.73;;;6.47;;
51738;SDS011;37815;52.692;6.226;2024-03-07T05:58:52;11.73;;;6.05;;
51738;SDS011;37815;52.692;6.226;2024-03-07T06:03:53;9.90;;;5.72;;
51738;SDS011;37815;52.692;6.226;2024-03-07T06:08:54;13.63;;;7.28;;
51738;SDS011;37815;52.692;6.226;2024-03-07T06:13:55;12.35;;;6.45;;
51738;SDS011;37815;52.692;6.226;2024-03-07T06:18:55;11.13;;;5.97;;
51738;SDS011;37815;52.692;6.226;2024-03-07T06:23:56;13.82;;;6.28;;
51738;SDS011;37815;52.692;6.226;2024-03-07T06:29:00;10.68;;;5.57;;
51738;SDS011;37815;52.692;6.226;2024-03-07T06:34:00;14.95;;;7.18;;
51738;SDS011;37815;52.692;6.226;2024-03-07T06:39:02;12.50;;;5.88;;
51738;SDS011;37815;52.692;6.226;2024-03-07T06:44:06;12.25;;;6.05;;
51738;SDS011;37815;52.692;6.226;2024-03-07T06:49:07;11.25;;;5.75;;
51738;SDS011;37815;52.692;6.226;2024-03-07T06:54:11;11.32;;;5.88;;
51738;SDS011;37815;52.692;6.226;2024-03-07T06:59:12;11.63;;;6.25;;
51738;SDS011;37815;52.692;6.226;2024-03-07T07:04:14;11.48;;;5.72;;
51738;SDS011;37815;52.692;6.226;2024-03-07T07:09:15;10.82;;;5.70;;
51738;SDS011;37815;52.692;6.226;2024-03-07T07:14:18;11.02;;;5.68;;
51738;SDS011;37815;52.692;6.226;2024-03-07T07:19:20;9.88;;;5.57;;
51738;SDS011;37815;52.692;6.226;2024-03-07T07:24:21;11.85;;;6.15;;
51738;SDS011;37815;52.692;6.226;2024-03-07T07:29:23;10.20;;;5.85;;
51738;SDS011;37815;52.692;6.226;2024-03-07T07:34:24;11.90;;;6.32;;
51738;SDS011;37815;52.692;6.226;2024-03-07T07:39:25;11.98;;;6.00;;
51738;SDS011;37815;52.692;6.226;2024-03-07T07:44:26;11.00;;;5.93;;
51738;SDS011;37815;52.692;6.226;2024-03-07T07:49:26;10.70;;;5.63;;
51738;SDS011;37815;52.692;6.226;2024-03-07T07:54:28;11.90;;;6.43;;
51738;SDS011;37815;52.692;6.226;2024-03-07T07:59:29;12.00;;;6.00;;
51738;SDS011;37815;52.692;6.226;2024-03-07T08:04:31;12.07;;;5.82;;
51738;SDS011;37815;52.692;6.226;2024-03-07T08:09:32;16.30;;;8.30;;
51738;SDS011;37815;52.692;6.226;2024-03-07T08:14:33;17.58;;;8.23;;
51738;SDS011;37815;52.692;6.226;2024-03-07T08:19:34;14.32;;;7.95;;
51738;SDS011;37815;52.692;6.226;2024-03-07T08:24:35;18.00;;;9.18;;
51738;SDS011;37815;52.692;6.226;2024-03-07T08:29:35;14.68;;;7.75;;
51738;SDS011;37815;52.692;6.226;2024-03-07T08:34:36;14.25;;;7.88;;
51738;SDS011;37815;52.692;6.226;2024-03-07T08:39:36;13.82;;;7.20;;
51738;SDS011;37815;52.692;6.226;2024-03-07T08:44:37;14.55;;;7.85;;
51738;SDS011;37815;52.692;6.226;2024-03-07T08:49:38;13.52;;;7.50;;
51738;SDS011;37815;52.692;6.226;2024-03-07T08:54:39;12.40;;;7.38;;
51738;SDS011;37815;52.692;6.226;2024-03-07T08:59:40;14.82;;;7.35;;
51738;SDS011;37815;52.692;6.226;2024-03-07T09:04:40;15.98;;;7.80;;
51738;SDS011;37815;52.692;6.226;2024-03-07T09:09:41;12.65;;;7.38;;
51738;SDS011;37815;52.692;6.226;2024-03-07T09:14:45;13.20;;;6.97;;
51738;SDS011;37815;52.692;6.226;2024-03-07T09:19:46;14.93;;;7.28;;
51738;SDS011;37815;52.692;6.226;2024-03-07T09:24:46;12.00;;;6.75;;
51738;SDS011;37815;52.692;6.226;2024-03-07T09:29:47;11.90;;;6.93;;
51738;SDS011;37815;52.692;6.226;2024-03-07T09:34:47;12.35;;;6.53;;
51738;SDS011;37815;52.692;6.226;2024-03-07T09:39:49;12.90;;;6.82;;
51738;SDS011;37815;52.692;6.226;2024-03-07T09:44:50;12.88;;;6.95;;
51738;SDS011;37815;52.692;6.226;2024-03-07T09:49:51;14.75;;;7.53;;
51738;SDS011;37815;52.692;6.226;2024-03-07T09:54:53;14.27;;;7.03;;
51738;SDS011;37815;52.692;6.226;2024-03-07T09:59:54;15.00;;;8.10;;
51738;SDS011;37815;52.692;6.226;2024-03-07T10:04:55;13.95;;;7.63;;
51738;SDS011;37815;52.692;6.226;2024-03-07T10:09:57;13.98;;;7.32;;
51738;SDS011;37815;52.692;6.226;2024-03-07T10:15:02;14.45;;;8.35;;
51738;SDS011;37815;52.692;6.226;2024-03-07T10:20:03;16.67;;;8.32;;
51738;SDS011;37815;52.692;6.226;2024-03-07T10:25:09;15.52;;;7.85;;
51738;SDS011;37815;52.692;6.226;2024-03-07T10:30:10;23.17;;;10.85;;
51738;SDS011;37815;52.692;6.226;2024-03-07T10:35:13;26.70;;;12.52;;
51738;SDS011;37815;52.692;6.226;2024-03-07T10:40:14;26.25;;;12.30;;
51738;SDS011;37815;52.692;6.226;2024-03-07T10:45:18;26.25;;;11.88;;
51738;SDS011;37815;52.692;6.226;2024-03-07T10:55:44;26.23;;;11.15;;
51738;SDS011;37815;52.692;6.226;2024-03-07T11:01:01;23.90;;;11.23;;
51738;SDS011;37815;52.692;6.226;2024-03-07T11:06:05;27.30;;;11.70;;
51738;SDS011;37815;52.692;6.226;2024-03-07T11:11:11;25.10;;;11.70;;
51738;SDS011;37815;52.692;6.226;2024-03-07T11:16:13;22.30;;;11.40;;
51738;SDS011;37815;52.692;6.226;2024-03-07T11:26:48;24.63;;;10.88;;
51738;SDS011;37815;52.692;6.226;2024-03-07T11:31:53;24.45;;;11.55;;
51738;SDS011;37815;52.692;6.226;2024-03-07T11:36:55;23.42;;;10.65;;
51738;SDS011;37815;52.692;6.226;2024-03-07T11:41:59;20.02;;;10.57;;
51738;SDS011;37815;52.692;6.226;2024-03-07T11:47:01;23.92;;;10.88;;
51738;SDS011;37815;52.692;6.226;2024-03-07T11:52:08;21.60;;;10.43;;
51738;SDS011;37815;52.692;6.226;2024-03-07T11:57:15;19.98;;;9.75;;
51738;SDS011;37815;52.692;6.226;2024-03-07T12:02:16;19.48;;;9.68;;
51738;SDS011;37815;52.692;6.226;2024-03-07T12:07:17;20.55;;;8.98;;
51738;SDS011;37815;52.692;6.226;2024-03-07T12:12:20;19.77;;;9.35;;
51738;SDS011;37815;52.692;6.226;2024-03-07T12:17:30;19.83;;;9.63;;
51738;SDS011;37815;52.692;6.226;2024-03-07T12:22:31;20.88;;;9.30;;
51738;SDS011;37815;52.692;6.226;2024-03-07T12:27:33;20.60;;;9.75;;
51738;SDS011;37815;52.692;6.226;2024-03-07T12:32:33;20.85;;;9.35;;
51738;SDS011;37815;52.692;6.226;2024-03-07T12:37:35;17.15;;;8.50;;
51738;SDS011;37815;52.692;6.226;2024-03-07T12:42:35;20.08;;;9.45;;
51738;SDS011;37815;52.692;6.226;2024-03-07T12:47:36;18.63;;;8.95;;
51738;SDS011;37815;52.692;6.226;2024-03-07T12:52:37;23.13;;;9.70;;
51738;SDS011;37815;52.692;6.226;2024-03-07T12:57:38;19.83;;;9.43;;
51738;SDS011;37815;52.692;6.226;2024-03-07T13:02:40;19.23;;;8.27;;
51738;SDS011;37815;52.692;6.226;2024-03-07T13:07:45;18.58;;;8.95;;
51738;SDS011;37815;52.692;6.226;2024-03-07T13:12:47;19.38;;;8.65;;
51738;SDS011;37815;52.692;6.226;2024-03-07T13:17:48;21.13;;;9.82;;
51738;SDS011;37815;52.692;6.226;2024-03-07T13:22:52;19.95;;;8.05;;
51738;SDS011;37815;52.692;6.226;2024-03-07T13:32:59;19.35;;;8.82;;
51738;SDS011;37815;52.692;6.226;2024-03-07T13:38:00;16.75;;;8.63;;
51738;SDS011;37815;52.692;6.226;2024-03-07T13:43:01;17.17;;;8.30;;
51738;SDS011;37815;52.692;6.226;2024-03-07T13:48:01;18.83;;;8.60;;
51738;SDS011;37815;52.692;6.226;2024-03-07T13:53:05;15.40;;;7.57;;
51738;SDS011;37815;52.692;6.226;2024-03-07T13:58:31;18.85;;;8.40;;
51738;SDS011;37815;52.692;6.226;2024-03-07T14:25:57;18.10;;;8.35;;
51738;SDS011;37815;52.692;6.226;2024-03-07T14:31:38;17.67;;;8.35;;
51738;SDS011;37815;52.692;6.226;2024-03-07T14:36:43;19.67;;;8.38;;
51738;SDS011;37815;52.692;6.226;2024-03-07T14:41:50;21.60;;;8.50;;
51738;SDS011;37815;52.692;6.226;2024-03-07T14:47:09;16.75;;;7.90;;
51738;SDS011;37815;52.692;6.226;2024-03-07T14:52:11;21.30;;;9.32;;
51738;SDS011;37815;52.692;6.226;2024-03-07T14:57:13;18.33;;;8.60;;
51738;SDS011;37815;52.692;6.226;2024-03-07T15:02:13;22.27;;;9.13;;
51738;SDS011;37815;52.692;6.226;2024-03-07T15:07:15;24.08;;;10.50;;
51738;SDS011;37815;52.692;6.226;2024-03-07T15:12:15;24.65;;;9.82;;
51738;SDS011;37815;52.692;6.226;2024-03-07T15:17:17;23.75;;;9.65;;
51738;SDS011;37815;52.692;6.226;2024-03-07T15:22:17;24.67;;;9.65;;
51738;SDS011;37815;52.692;6.226;2024-03-07T15:27:20;23.30;;;9.65;;
51738;SDS011;37815;52.692;6.226;2024-03-07T15:32:21;21.30;;;9.73;;
51738;SDS011;37815;52.692;6.226;2024-03-07T15:37:22;22.55;;;9.38;;
51738;SDS011;37815;52.692;6.226;2024-03-07T15:42:23;26.10;;;9.45;;
51738;SDS011;37815;52.692;6.226;2024-03-07T15:47:24;21.13;;;8.45;;
51738;SDS011;37815;52.692;6.226;2024-03-07T15:52:25;23.85;;;9.25;;
51738;SDS011;37815;52.692;6.226;2024-03-07T15:57:25;19.65;;;8.20;;
51738;SDS011;37815;52.692;6.226;2024-03-07T16:02:27;21.90;;;9.18;;
51738;SDS011;37815;52.692;6.226;2024-03-07T16:07:27;22.38;;;8.55;;
51738;SDS011;37815;52.692;6.226;2024-03-07T16:12:28;19.77;;;8.80;;
51738;SDS011;37815;52.692;6.226;2024-03-07T16:17:28;16.00;;;8.05;;
51738;SDS011;37815;52.692;6.226;2024-03-07T16:22:29;21.52;;;8.50;;
51738;SDS011;37815;52.692;6.226;2024-03-07T16:27:30;17.35;;;8.32;;
51738;SDS011;37815;52.692;6.226;2024-03-07T16:32:32;17.70;;;8.88;;
51738;SDS011;37815;52.692;6.226;2024-03-07T16:37:33;17.13;;;8.10;;
51738;SDS011;37815;52.692;6.226;2024-03-07T16:42:43;18.20;;;8.25;;
51738;SDS011;37815;52.692;6.226;2024-03-07T16:47:45;21.50;;;8.13;;
51738;SDS011;37815;52.692;6.226;2024-03-07T16:52:53;17.30;;;7.63;;
51738;SDS011;37815;52.692;6.226;2024-03-07T16:57:55;16.90;;;8.25;;
51738;SDS011;37815;52.692;6.226;2024-03-07T17:03:00;18.75;;;7.93;;
51738;SDS011;37815;52.692;6.226;2024-03-07T17:13:07;18.00;;;7.63;;
51738;SDS011;37815;52.692;6.226;2024-03-07T17:18:11;16.05;;;7.28;;
51738;SDS011;37815;52.692;6.226;2024-03-07T17:23:14;16.20;;;7.78;;
51738;SDS011;37815;52.692;6.226;2024-03-07T17:28:15;14.27;;;7.00;;
51738;SDS011;37815;52.692;6.226;2024-03-07T17:33:16;16.63;;;6.88;;
51738;SDS011;37815;52.692;6.226;2024-03-07T17:38:17;13.32;;;6.57;;
51738;SDS011;37815;52.692;6.226;2024-03-07T17:43:20;13.65;;;6.00;;
51738;SDS011;37815;52.692;6.226;2024-03-07T17:48:20;16.83;;;6.63;;
51738;SDS011;37815;52.692;6.226;2024-03-07T17:53:25;18.02;;;8.00;;
51738;SDS011;37815;52.692;6.226;2024-03-07T17:58:26;16.95;;;6.93;;
51738;SDS011;37815;52.692;6.226;2024-03-07T18:03:26;14.65;;;6.50;;
51738;SDS011;37815;52.692;6.226;2024-03-07T18:08:27;15.93;;;6.65;;
51738;SDS011;37815;52.692;6.226;2024-03-07T18:13:29;15.55;;;7.03;;
51738;SDS011;37815;52.692;6.226;2024-03-07T18:18:30;14.30;;;7.25;;
51738;SDS011;37815;52.692;6.226;2024-03-07T18:23:32;14.57;;;6.38;;
51738;SDS011;37815;52.692;6.226;2024-03-07T18:28:33;14.32;;;6.40;;
51738;SDS011;37815;52.692;6.226;2024-03-07T18:33:36;12.98;;;7.05;;
51738;SDS011;37815;52.692;6.226;2024-03-07T18:38:36;13.27;;;6.65;;
51738;SDS011;37815;52.692;6.226;2024-03-07T18:43:40;14.30;;;6.63;;
51738;SDS011;37815;52.692;6.226;2024-03-07T18:48:41;17.60;;;6.53;;
51738;SDS011;37815;52.692;6.226;2024-03-07T18:53:42;14.30;;;6.78;;
51738;SDS011;37815;52.692;6.226;2024-03-07T18:58:43;13.65;;;7.18;;
51738;SDS011;37815;52.692;6.226;2024-03-07T19:03:45;12.38;;;6.55;;
51738;SDS011;37815;52.692;6.226;2024-03-07T19:08:45;13.80;;;6.72;;
51738;SDS011;37815;52.692;6.226;2024-03-07T19:13:48;12.65;;;6.00;;
51738;SDS011;37815;52.692;6.226;2024-03-07T19:18:49;14.35;;;6.72;;
51738;SDS011;37815;52.692;6.226;2024-03-07T19:23:49;12.88;;;6.30;;
51738;SDS011;37815;52.692;6.226;2024-03-07T19:28:50;12.85;;;6.28;;
51738;SDS011;37815;52.692;6.226;2024-03-07T19:33:50;14.07;;;6.22;;
51738;SDS011;37815;52.692;6.226;2024-03-07T19:38:51;14.57;;;6.32;;
51738;SDS011;37815;52.692;6.226;2024-03-07T19:43:52;14.57;;;6.80;;
51738;SDS011;37815;52.692;6.226;2024-03-07T19:48:52;12.75;;;6.45;;
51738;SDS011;37815;52.692;6.226;2024-03-07T19:53:53;13.57;;;5.68;;
51738;SDS011;37815;52.692;6.226;2024-03-07T19:58:53;13.73;;;6.18;;
51738;SDS011;37815;52.692;6.226;2024-03-07T20:03:54;13.32;;;6.93;;
51738;SDS011;37815;52.692;6.226;2024-03-07T20:08:54;12.38;;;6.65;;
51738;SDS011;37815;52.692;6.226;2024-03-07T20:13:59;14.52;;;6.18;;
51738;SDS011;37815;52.692;6.226;2024-03-07T20:18:59;12.45;;;5.93;;
51738;SDS011;37815;52.692;6.226;2024-03-07T20:24:00;12.77;;;5.72;;
51738;SDS011;37815;52.692;6.226;2024-03-07T20:29:02;12.55;;;5.72;;
51738;SDS011;37815;52.692;6.226;2024-03-07T20:34:04;14.75;;;5.65;;
51738;SDS011;37815;52.692;6.226;2024-03-07T20:39:05;13.98;;;5.53;;
51738;SDS011;37815;52.692;6.226;2024-03-07T20:44:09;13.73;;;5.88;;
51738;SDS011;37815;52.692;6.226;2024-03-07T20:49:11;14.85;;;6.55;;
51738;SDS011;37815;52.692;6.226;2024-03-07T20:54:13;12.57;;;6.93;;
51738;SDS011;37815;52.692;6.226;2024-03-07T20:59:15;13.77;;;6.22;;
51738;SDS011;37815;52.692;6.226;2024-03-07T21:04:18;13.10;;;6.28;;
51738;SDS011;37815;52.692;6.226;2024-03-07T21:09:20;12.32;;;6.10;;
51738;SDS011;37815;52.692;6.226;2024-03-07T21:14:23;11.10;;;5.72;;
51738;SDS011;37815;52.692;6.226;2024-03-07T21:19:24;11.77;;;6.32;;
51738;SDS011;37815;52.692;6.226;2024-03-07T21:24:24;12.40;;;6.07;;
51738;SDS011;37815;52.692;6.226;2024-03-07T21:29:25;13.90;;;6.20;;
51738;SDS011;37815;52.692;6.226;2024-03-07T21:34:28;10.77;;;5.13;;
51738;SDS011;37815;52.692;6.226;2024-03-07T21:39:28;11.57;;;4.93;;
51738;SDS011;37815;52.692;6.226;2024-03-07T21:44:30;9.90;;;5.45;;
51738;SDS011;37815;52.692;6.226;2024-03-07T21:49:30;10.32;;;5.80;;
51738;SDS011;37815;52.692;6.226;2024-03-07T21:54:37;10.40;;;5.80;;
51738;SDS011;37815;52.692;6.226;2024-03-07T21:59:38;13.02;;;5.93;;
51738;SDS011;37815;52.692;6.226;2024-03-07T22:04:39;13.02;;;5.68;;
51738;SDS011;37815;52.692;6.226;2024-03-07T22:09:41;12.40;;;6.00;;
51738;SDS011;37815;52.692;6.226;2024-03-07T22:14:42;12.35;;;6.03;;
51738;SDS011;37815;52.692;6.226;2024-03-07T22:19:43;11.18;;;5.43;;
51738;SDS011;37815;52.692;6.226;2024-03-07T22:24:44;12.75;;;6.40;;
51738;SDS011;37815;52.692;6.226;2024-03-07T22:29:45;14.70;;;6.03;;
51738;SDS011;37815;52.692;6.226;2024-03-07T22:34:46;10.57;;;5.85;;
51738;SDS011;37815;52.692;6.226;2024-03-07T22:39:46;13.00;;;5.95;;
51738;SDS011;37815;52.692;6.226;2024-03-07T22:44:47;12.05;;;5.35;;
51738;SDS011;37815;52.692;6.226;2024-03-07T22:49:47;12.98;;;5.80;;
51738;SDS011;37815;52.692;6.226;2024-03-07T22:54:49;9.95;;;5.28;;
51738;SDS011;37815;52.692;6.226;2024-03-07T22:59:50;10.75;;;5.43;;
51738;SDS011;37815;52.692;6.226;2024-03-07T23:04:53;11.60;;;5.32;;
51738;SDS011;37815;52.692;6.226;2024-03-07T23:09:54;10.98;;;5.55;;
51738;SDS011;37815;52.692;6.226;2024-03-07T23:14:54;10.65;;;5.43;;
51738;SDS011;37815;52.692;6.226;2024-03-07T23:19:55;11.23;;;5.35;;
51738;SDS011;37815;52.692;6.226;2024-03-07T23:24:56;10.15;;;5.00;;
51738;SDS011;37815;52.692;6.226;2024-03-07T23:29:56;11.63;;;5.28;;
51738;SDS011;37815;52.692;6.226;2024-03-07T23:34:58;10.32;;;5.65;;
51738;SDS011;37815;52.692;6.226;2024-03-07T23:39:59;10.75;;;5.50;;
51738;SDS011;37815;52.692;6.226;2024-03-07T23:44:59;10.65;;;5.15;;
51738;SDS011;37815;52.692;6.226;2024-03-07T23:50:00;11.93;;;5.65;;
51738;SDS011;37815;52.692;6.226;2024-03-07T23:55:02;10.43;;;5.22;;
